sensor_id;sensor_type;location;lat;lon;timestamp;temperature;humidity
21261;DHT22;10788;47.930;9.766;2022-12-18T00:01:51;-5.00;99.90
21261;DHT22;10788;47.930;9.766;2022-12-18T00:04:26;-5.00;99.90
21261;DHT22;10788;47.930;9.766;2022-12-18T00:06:53;-5.00;99.90
21261;DHT22;10788;47.930;9.766;2022-12-18T00:09:19;-5.00;99.90
21261;DHT22;10788;47.930;9.766;2022-12-18T00:11:45;-5.00;99.90
21261;DHT22;10788;47.930;9.766;2022-12-18T00:14:12;-5.20;99.90
21261;DHT22;10788;47.930;9.766;2022-12-18T00:16:38;-5.10;99.90
21261;DHT22;10788;47.930;9.766;2022-12-18T00:19:05;-5.10;99.90
21261;DHT22;10788;47.930;9.766;2022-12-18T00:21:32;-5.20;99.90
21261;DHT22;10788;47.930;9.766;2022-12-18T00:23:58;-5.10;99.90
21261;DHT22;10788;47.930;9.766;2022-12-18T00:26:29;-5.10;99.90
21261;DHT22;10788;47.930;9.766;2022-12-18T00:28:59;-5.20;99.90
21261;DHT22;10788;47.930;9.766;2022-12-18T00:31:25;-5.20;99.90
21261;DHT22;10788;47.930;9.766;2022-12-18T00:33:51;-5.20;99.90
21261;DHT22;10788;47.930;9.766;2022-12-18T00:36:24;-5.20;99.90
21261;DHT22;10788;47.930;9.766;2022-12-18T00:38:50;-5.20;99.90
21261;DHT22;10788;47.930;9.766;2022-12-18T00:41:17;-5.10;99.90
21261;DHT22;10788;47.930;9.766;2022-12-18T00:44:04;-5.10;99.90
21261;DHT22;10788;47.930;9.766;2022-12-18T00:46:30;-5.40;99.90
21261;DHT22;10788;47.930;9.766;2022-12-18T00:48:56;-5.50;99.90
21261;DHT22;10788;47.930;9.766;2022-12-18T00:51:22;-5.50;99.90
21261;DHT22;10788;47.930;9.766;2022-12-18T00:53:48;-5.40;99.90
21261;DHT22;10788;47.930;9.766;2022-12-18T00:56:14;-5.40;99.90
21261;DHT22;10788;47.930;9.766;2022-12-18T00:58:39;-5.50;99.90
21261;DHT22;10788;47.930;9.766;2022-12-18T01:01:06;-5.60;99.90
21261;DHT22;10788;47.930;9.766;2022-12-18T01:03:32;-5.50;99.90
21261;DHT22;10788;47.930;9.766;2022-12-18T01:05:58;-5.50;99.90
21261;DHT22;10788;47.930;9.766;2022-12-18T01:08:23;-5.40;99.90
21261;DHT22;10788;47.930;9.766;2022-12-18T01:10:51;-5.30;99.90
21261;DHT22;10788;47.930;9.766;2022-12-18T01:13:16;-5.50;99.90
21261;DHT22;10788;47.930;9.766;2022-12-18T01:15:51;-5.50;99.90
21261;DHT22;10788;47.930;9.766;2022-12-18T01:18:16;-5.60;99.90
21261;DHT22;10788;47.930;9.766;2022-12-18T01:20:42;-5.50;99.90
21261;DHT22;10788;47.930;9.766;2022-12-18T01:23:08;-5.60;99.90
21261;DHT22;10788;47.930;9.766;2022-12-18T01:25:36;-5.60;99.90
21261;DHT22;10788;47.930;9.766;2022-12-18T01:28:02;-5.50;99.90
21261;DHT22;10788;47.930;9.766;2022-12-18T01:30:27;-5.50;99.90
21261;DHT22;10788;47.930;9.766;2022-12-18T01:32:53;-5.50;99.90
21261;DHT22;10788;47.930;9.766;2022-12-18T01:35:19;-5.50;99.90
21261;DHT22;10788;47.930;9.766;2022-12-18T01:37:44;-5.70;99.90
21261;DHT22;10788;47.930;9.766;2022-12-18T01:40:10;-5.70;99.90
21261;DHT22;10788;47.930;9.766;2022-12-18T01:42:37;-5.60;99.90
21261;DHT22;10788;47.930;9.766;2022-12-18T01:47:57;-5.50;99.90
21261;DHT22;10788;47.930;9.766;2022-12-18T01:50:37;-5.60;99.90
21261;DHT22;10788;47.930;9.766;2022-12-18T01:53:10;-5.60;99.90
21261;DHT22;10788;47.930;9.766;2022-12-18T01:55:59;-5.50;99.90
21261;DHT22;10788;47.930;9.766;2022-12-18T01:58:42;-5.40;99.90
21261;DHT22;10788;47.930;9.766;2022-12-18T02:01:10;-5.70;99.90
21261;DHT22;10788;47.930;9.766;2022-12-18T02:03:36;-5.70;99.90
21261;DHT22;10788;47.930;9.766;2022-12-18T02:09:11;-5.70;99.90
21261;DHT22;10788;47.930;9.766;2022-12-18T02:11:57;-5.70;99.90
21261;DHT22;10788;47.930;9.766;2022-12-18T02:28:03;-5.60;99.90
21261;DHT22;10788;47.930;9.766;2022-12-18T02:30:31;-5.60;99.90
21261;DHT22;10788;47.930;9.766;2022-12-18T02:32:57;-5.60;99.90
21261;DHT22;10788;47.930;9.766;2022-12-18T02:35:28;-5.50;99.90
21261;DHT22;10788;47.930;9.766;2022-12-18T02:37:55;-5.50;99.90
21261;DHT22;10788;47.930;9.766;2022-12-18T02:40:23;-5.50;99.90
21261;DHT22;10788;47.930;9.766;2022-12-18T02:42:49;-5.40;99.90
21261;DHT22;10788;47.930;9.766;2022-12-18T02:45:15;-5.40;99.90
21261;DHT22;10788;47.930;9.766;2022-12-18T02:47:44;-5.40;99.90
21261;DHT22;10788;47.930;9.766;2022-12-18T02:56:12;-5.50;99.90
21261;DHT22;10788;47.930;9.766;2022-12-18T02:58:53;-5.50;99.90
21261;DHT22;10788;47.930;9.766;2022-12-18T03:04:02;-5.50;99.90
21261;DHT22;10788;47.930;9.766;2022-12-18T03:09:08;-5.60;99.90
21261;DHT22;10788;47.930;9.766;2022-12-18T03:11:37;-5.50;99.90
21261;DHT22;10788;47.930;9.766;2022-12-18T03:14:24;-5.50;99.90
21261;DHT22;10788;47.930;9.766;2022-12-18T03:16:53;-5.50;99.90
21261;DHT22;10788;47.930;9.766;2022-12-18T03:19:22;-5.50;99.90
21261;DHT22;10788;47.930;9.766;2022-12-18T03:21:52;-5.40;99.90
21261;DHT22;10788;47.930;9.766;2022-12-18T03:24:20;-5.40;99.90
21261;DHT22;10788;47.930;9.766;2022-12-18T03:26:49;-5.40;99.90
21261;DHT22;10788;47.930;9.766;2022-12-18T03:29:28;-5.30;99.90
21261;DHT22;10788;47.930;9.766;2022-12-18T03:32:03;-5.30;99.90
21261;DHT22;10788;47.930;9.766;2022-12-18T03:34:33;-5.40;99.90
21261;DHT22;10788;47.930;9.766;2022-12-18T03:37:02;-5.40;99.90
21261;DHT22;10788;47.930;9.766;2022-12-18T03:39:28;-5.50;99.90
21261;DHT22;10788;47.930;9.766;2022-12-18T03:47:57;-5.70;99.90
21261;DHT22;10788;47.930;9.766;2022-12-18T03:53:20;-5.70;99.90
21261;DHT22;10788;47.930;9.766;2022-12-18T03:55:48;-5.70;99.90
21261;DHT22;10788;47.930;9.766;2022-12-18T03:58:17;-5.70;99.90
21261;DHT22;10788;47.930;9.766;2022-12-18T04:00:44;-5.70;99.90
21261;DHT22;10788;47.930;9.766;2022-12-18T04:03:11;-5.90;99.90
21261;DHT22;10788;47.930;9.766;2022-12-18T04:05:37;-6.00;99.90
21261;DHT22;10788;47.930;9.766;2022-12-18T04:08:04;-5.90;99.90
21261;DHT22;10788;47.930;9.766;2022-12-18T04:10:30;-6.10;99.90
21261;DHT22;10788;47.930;9.766;2022-12-18T04:12:57;-5.90;99.90
21261;DHT22;10788;47.930;9.766;2022-12-18T04:15:23;-5.90;99.90
21261;DHT22;10788;47.930;9.766;2022-12-18T04:17:49;-5.90;99.90
21261;DHT22;10788;47.930;9.766;2022-12-18T04:20:16;-6.00;99.90
21261;DHT22;10788;47.930;9.766;2022-12-18T04:22:42;-5.90;99.90
21261;DHT22;10788;47.930;9.766;2022-12-18T04:25:08;-5.90;99.90
21261;DHT22;10788;47.930;9.766;2022-12-18T04:27:33;-5.80;99.90
21261;DHT22;10788;47.930;9.766;2022-12-18T04:29:59;-5.80;99.90
21261;DHT22;10788;47.930;9.766;2022-12-18T04:32:25;-5.80;99.90
21261;DHT22;10788;47.930;9.766;2022-12-18T04:34:51;-5.80;99.90
21261;DHT22;10788;47.930;9.766;2022-12-18T04:37:16;-5.90;99.90
21261;DHT22;10788;47.930;9.766;2022-12-18T04:39:42;-5.90;99.90
21261;DHT22;10788;47.930;9.766;2022-12-18T04:42:07;-5.90;99.90
21261;DHT22;10788;47.930;9.766;2022-12-18T04:44:33;-5.90;99.90
21261;DHT22;10788;47.930;9.766;2022-12-18T04:46:59;-6.00;99.90
21261;DHT22;10788;47.930;9.766;2022-12-18T04:49:25;-6.10;99.90
21261;DHT22;10788;47.930;9.766;2022-12-18T04:51:50;-6.00;99.90
21261;DHT22;10788;47.930;9.766;2022-12-18T04:54:17;-6.20;99.90
21261;DHT22;10788;47.930;9.766;2022-12-18T04:56:45;-6.30;99.90
21261;DHT22;10788;47.930;9.766;2022-12-18T04:59:10;-6.30;99.90
21261;DHT22;10788;47.930;9.766;2022-12-18T05:01:36;-6.30;99.90
21261;DHT22;10788;47.930;9.766;2022-12-18T05:04:02;-6.20;99.90
21261;DHT22;10788;47.930;9.766;2022-12-18T05:06:28;-6.20;99.90
21261;DHT22;10788;47.930;9.766;2022-12-18T05:08:53;-6.10;99.90
21261;DHT22;10788;47.930;9.766;2022-12-18T05:11:19;-6.10;99.90
21261;DHT22;10788;47.930;9.766;2022-12-18T05:13:45;-6.00;99.90
21261;DHT22;10788;47.930;9.766;2022-12-18T05:16:11;-5.90;99.90
21261;DHT22;10788;47.930;9.766;2022-12-18T05:18:37;-5.90;99.90
21261;DHT22;10788;47.930;9.766;2022-12-18T05:21:03;-5.80;99.90
21261;DHT22;10788;47.930;9.766;2022-12-18T05:23:29;-5.80;99.90
21261;DHT22;10788;47.930;9.766;2022-12-18T05:26:04;-5.80;99.90
21261;DHT22;10788;47.930;9.766;2022-12-18T05:28:31;-5.90;99.90
21261;DHT22;10788;47.930;9.766;2022-12-18T05:31:00;-6.00;99.90
21261;DHT22;10788;47.930;9.766;2022-12-18T05:33:28;-6.00;99.90
21261;DHT22;10788;47.930;9.766;2022-12-18T05:35:56;-6.00;99.90
21261;DHT22;10788;47.930;9.766;2022-12-18T05:38:24;-6.00;99.90
21261;DHT22;10788;47.930;9.766;2022-12-18T05:40:50;-6.10;99.90
21261;DHT22;10788;47.930;9.766;2022-12-18T05:43:16;-6.00;99.90
21261;DHT22;10788;47.930;9.766;2022-12-18T05:45:42;-6.00;99.90
21261;DHT22;10788;47.930;9.766;2022-12-18T05:48:09;-6.10;99.90
21261;DHT22;10788;47.930;9.766;2022-12-18T05:50:36;-6.00;99.90
21261;DHT22;10788;47.930;9.766;2022-12-18T05:53:03;-6.00;99.90
21261;DHT22;10788;47.930;9.766;2022-12-18T05:55:35;-6.10;99.90
21261;DHT22;10788;47.930;9.766;2022-12-18T05:58:02;-6.10;99.90
21261;DHT22;10788;47.930;9.766;2022-12-18T06:00:28;-6.20;99.90
21261;DHT22;10788;47.930;9.766;2022-12-18T06:02:54;-6.20;99.90
21261;DHT22;10788;47.930;9.766;2022-12-18T06:05:20;-6.30;99.90
21261;DHT22;10788;47.930;9.766;2022-12-18T06:07:45;-6.40;99.90
21261;DHT22;10788;47.930;9.766;2022-12-18T06:10:11;-6.30;99.90
21261;DHT22;10788;47.930;9.766;2022-12-18T06:12:37;-6.40;99.90
21261;DHT22;10788;47.930;9.766;2022-12-18T06:15:03;-6.40;99.90
21261;DHT22;10788;47.930;9.766;2022-12-18T06:17:30;-6.40;99.90
21261;DHT22;10788;47.930;9.766;2022-12-18T06:19:56;-6.40;99.90
21261;DHT22;10788;47.930;9.766;2022-12-18T06:22:21;-6.40;99.90
21261;DHT22;10788;47.930;9.766;2022-12-18T06:24:47;-6.50;99.90
21261;DHT22;10788;47.930;9.766;2022-12-18T06:27:13;-6.50;99.90
21261;DHT22;10788;47.930;9.766;2022-12-18T06:29:38;-6.40;99.90
21261;DHT22;10788;47.930;9.766;2022-12-18T06:32:04;-6.50;99.90
21261;DHT22;10788;47.930;9.766;2022-12-18T06:34:30;-6.50;99.90
21261;DHT22;10788;47.930;9.766;2022-12-18T06:36:55;-6.60;99.90
21261;DHT22;10788;47.930;9.766;2022-12-18T06:39:21;-6.50;99.90
21261;DHT22;10788;47.930;9.766;2022-12-18T06:41:47;-6.50;99.90
21261;DHT22;10788;47.930;9.766;2022-12-18T06:44:12;-6.60;99.90
21261;DHT22;10788;47.930;9.766;2022-12-18T06:46:38;-6.60;99.90
21261;DHT22;10788;47.930;9.766;2022-12-18T06:49:03;-6.60;99.90
21261;DHT22;10788;47.930;9.766;2022-12-18T06:51:29;-6.60;99.90
21261;DHT22;10788;47.930;9.766;2022-12-18T06:53:55;-6.60;99.90
21261;DHT22;10788;47.930;9.766;2022-12-18T06:56:20;-6.60;99.90
21261;DHT22;10788;47.930;9.766;2022-12-18T06:58:46;-6.60;99.90
21261;DHT22;10788;47.930;9.766;2022-12-18T07:01:13;-6.60;99.90
21261;DHT22;10788;47.930;9.766;2022-12-18T07:03:39;-6.50;99.90
21261;DHT22;10788;47.930;9.766;2022-12-18T07:06:06;-6.50;99.90
21261;DHT22;10788;47.930;9.766;2022-12-18T07:08:32;-6.50;99.90
21261;DHT22;10788;47.930;9.766;2022-12-18T07:10:57;-6.50;99.90
21261;DHT22;10788;47.930;9.766;2022-12-18T07:13:23;-6.60;99.90
21261;DHT22;10788;47.930;9.766;2022-12-18T07:15:49;-6.60;99.90
21261;DHT22;10788;47.930;9.766;2022-12-18T07:18:15;-6.60;99.90
21261;DHT22;10788;47.930;9.766;2022-12-18T07:20:40;-6.60;99.90
21261;DHT22;10788;47.930;9.766;2022-12-18T07:23:06;-6.70;99.90
21261;DHT22;10788;47.930;9.766;2022-12-18T07:25:35;-6.60;99.90
21261;DHT22;10788;47.930;9.766;2022-12-18T07:28:01;-6.50;99.90
21261;DHT22;10788;47.930;9.766;2022-12-18T07:30:27;-6.50;99.90
21261;DHT22;10788;47.930;9.766;2022-12-18T07:32:52;-6.60;99.90
21261;DHT22;10788;47.930;9.766;2022-12-18T07:35:18;-6.60;99.90
21261;DHT22;10788;47.930;9.766;2022-12-18T07:37:44;-6.60;99.90
21261;DHT22;10788;47.930;9.766;2022-12-18T07:40:10;-6.60;99.90
21261;DHT22;10788;47.930;9.766;2022-12-18T07:42:36;-6.60;99.90
21261;DHT22;10788;47.930;9.766;2022-12-18T07:45:03;-6.70;99.90
21261;DHT22;10788;47.930;9.766;2022-12-18T07:47:29;-6.80;99.90
21261;DHT22;10788;47.930;9.766;2022-12-18T07:49:57;-6.80;99.90
21261;DHT22;10788;47.930;9.766;2022-12-18T07:52:23;-6.70;99.90
21261;DHT22;10788;47.930;9.766;2022-12-18T07:54:49;-6.60;99.90
21261;DHT22;10788;47.930;9.766;2022-12-18T07:57:15;-6.50;99.90
21261;DHT22;10788;47.930;9.766;2022-12-18T07:59:41;-6.60;99.90
21261;DHT22;10788;47.930;9.766;2022-12-18T08:02:07;-6.70;99.90
21261;DHT22;10788;47.930;9.766;2022-12-18T08:04:33;-6.80;99.90
21261;DHT22;10788;47.930;9.766;2022-12-18T08:06:59;-6.90;99.90
21261;DHT22;10788;47.930;9.766;2022-12-18T08:09:24;-6.90;99.90
21261;DHT22;10788;47.930;9.766;2022-12-18T08:11:50;-6.90;99.90
21261;DHT22;10788;47.930;9.766;2022-12-18T08:14:15;-6.90;99.90
21261;DHT22;10788;47.930;9.766;2022-12-18T08:16:41;-7.00;99.90
21261;DHT22;10788;47.930;9.766;2022-12-18T08:19:07;-7.00;99.90
21261;DHT22;10788;47.930;9.766;2022-12-18T08:21:32;-7.10;99.90
21261;DHT22;10788;47.930;9.766;2022-12-18T08:23:59;-7.10;99.90
21261;DHT22;10788;47.930;9.766;2022-12-18T08:26:27;-7.00;99.90
21261;DHT22;10788;47.930;9.766;2022-12-18T08:28:55;-7.00;99.90
21261;DHT22;10788;47.930;9.766;2022-12-18T08:31:21;-6.90;99.90
21261;DHT22;10788;47.930;9.766;2022-12-18T08:33:49;-6.90;99.90
21261;DHT22;10788;47.930;9.766;2022-12-18T08:36:16;-6.70;99.90
21261;DHT22;10788;47.930;9.766;2022-12-18T08:38:42;-6.70;99.90
21261;DHT22;10788;47.930;9.766;2022-12-18T08:41:10;-6.70;99.90
21261;DHT22;10788;47.930;9.766;2022-12-18T08:43:36;-6.70;99.90
21261;DHT22;10788;47.930;9.766;2022-12-18T08:46:21;-6.70;99.90
21261;DHT22;10788;47.930;9.766;2022-12-18T08:48:49;-6.60;99.90
21261;DHT22;10788;47.930;9.766;2022-12-18T08:51:16;-6.60;99.90
21261;DHT22;10788;47.930;9.766;2022-12-18T08:53:43;-6.60;99.90
21261;DHT22;10788;47.930;9.766;2022-12-18T08:56:09;-6.50;99.90
21261;DHT22;10788;47.930;9.766;2022-12-18T08:58:35;-6.40;99.90
21261;DHT22;10788;47.930;9.766;2022-12-18T09:01:05;-6.50;99.90
21261;DHT22;10788;47.930;9.766;2022-12-18T09:03:32;-6.50;99.90
21261;DHT22;10788;47.930;9.766;2022-12-18T09:05:58;-6.40;99.90
21261;DHT22;10788;47.930;9.766;2022-12-18T09:08:25;-6.40;99.90
21261;DHT22;10788;47.930;9.766;2022-12-18T09:10:51;-6.30;99.90
21261;DHT22;10788;47.930;9.766;2022-12-18T09:13:18;-6.30;99.90
21261;DHT22;10788;47.930;9.766;2022-12-18T09:15:45;-6.20;99.90
21261;DHT22;10788;47.930;9.766;2022-12-18T09:18:13;-6.00;99.90
21261;DHT22;10788;47.930;9.766;2022-12-18T09:20:39;-5.90;99.90
21261;DHT22;10788;47.930;9.766;2022-12-18T09:23:06;-5.80;99.90
21261;DHT22;10788;47.930;9.766;2022-12-18T09:25:32;-5.90;99.90
21261;DHT22;10788;47.930;9.766;2022-12-18T09:28:15;-5.80;99.90
21261;DHT22;10788;47.930;9.766;2022-12-18T09:30:42;-5.90;99.90
21261;DHT22;10788;47.930;9.766;2022-12-18T09:33:09;-5.90;99.90
21261;DHT22;10788;47.930;9.766;2022-12-18T09:35:38;-5.90;99.90
21261;DHT22;10788;47.930;9.766;2022-12-18T09:38:04;-5.90;99.90
21261;DHT22;10788;47.930;9.766;2022-12-18T09:40:35;-5.80;99.90
21261;DHT22;10788;47.930;9.766;2022-12-18T09:43:04;-5.90;99.90
21261;DHT22;10788;47.930;9.766;2022-12-18T09:45:40;-6.00;99.90
21261;DHT22;10788;47.930;9.766;2022-12-18T09:48:16;-5.90;99.90
21261;DHT22;10788;47.930;9.766;2022-12-18T09:50:44;-5.90;99.90
21261;DHT22;10788;47.930;9.766;2022-12-18T09:53:16;-5.70;99.90
21261;DHT22;10788;47.930;9.766;2022-12-18T09:55:46;-5.60;99.90
21261;DHT22;10788;47.930;9.766;2022-12-18T10:01:00;-5.70;99.90
21261;DHT22;10788;47.930;9.766;2022-12-18T10:03:25;-5.60;99.90
21261;DHT22;10788;47.930;9.766;2022-12-18T10:06:14;-5.60;99.90
21261;DHT22;10788;47.930;9.766;2022-12-18T10:08:46;-5.50;99.90
21261;DHT22;10788;47.930;9.766;2022-12-18T10:24:45;-5.40;99.90
21261;DHT22;10788;47.930;9.766;2022-12-18T10:27:17;-5.30;99.90
21261;DHT22;10788;47.930;9.766;2022-12-18T10:29:44;-5.20;99.90
21261;DHT22;10788;47.930;9.766;2022-12-18T10:32:29;-5.10;99.90
21261;DHT22;10788;47.930;9.766;2022-12-18T10:34:57;-5.10;99.90
21261;DHT22;10788;47.930;9.766;2022-12-18T10:37:27;-5.00;99.90
21261;DHT22;10788;47.930;9.766;2022-12-18T10:42:34;-5.10;99.90
21261;DHT22;10788;47.930;9.766;2022-12-18T10:45:12;-5.10;99.90
21261;DHT22;10788;47.930;9.766;2022-12-18T10:47:48;-5.10;99.90
21261;DHT22;10788;47.930;9.766;2022-12-18T10:53:03;-5.00;99.90
21261;DHT22;10788;47.930;9.766;2022-12-18T10:58:22;-4.90;99.90
21261;DHT22;10788;47.930;9.766;2022-12-18T11:03:38;-4.90;99.90
21261;DHT22;10788;47.930;9.766;2022-12-18T11:06:09;-4.90;99.90
21261;DHT22;10788;47.930;9.766;2022-12-18T11:08:36;-4.80;99.90
21261;DHT22;10788;47.930;9.766;2022-12-18T11:11:02;-4.70;99.90
21261;DHT22;10788;47.930;9.766;2022-12-18T11:13:29;-4.80;99.90
21261;DHT22;10788;47.930;9.766;2022-12-18T11:15:57;-4.80;99.90
21261;DHT22;10788;47.930;9.766;2022-12-18T11:18:33;-4.70;99.90
21261;DHT22;10788;47.930;9.766;2022-12-18T11:21:06;-4.70;99.90
21261;DHT22;10788;47.930;9.766;2022-12-18T11:23:33;-4.60;99.90
21261;DHT22;10788;47.930;9.766;2022-12-18T11:26:01;-4.50;99.90
21261;DHT22;10788;47.930;9.766;2022-12-18T11:28:35;-4.60;99.90
21261;DHT22;10788;47.930;9.766;2022-12-18T11:36:33;-4.60;99.90
21261;DHT22;10788;47.930;9.766;2022-12-18T11:39:09;-4.50;99.90
21261;DHT22;10788;47.930;9.766;2022-12-18T11:50:00;-4.40;99.90
21261;DHT22;10788;47.930;9.766;2022-12-18T11:52:38;-4.30;99.90
21261;DHT22;10788;47.930;9.766;2022-12-18T11:58:41;-4.40;99.90
21261;DHT22;10788;47.930;9.766;2022-12-18T12:09:47;-4.30;99.90
21261;DHT22;10788;47.930;9.766;2022-12-18T12:20:22;-4.20;99.90
21261;DHT22;10788;47.930;9.766;2022-12-18T12:25:34;-4.00;99.90
21261;DHT22;10788;47.930;9.766;2022-12-18T12:31:00;-3.90;99.90
21261;DHT22;10788;47.930;9.766;2022-12-18T12:39:06;-3.80;99.90
21261;DHT22;10788;47.930;9.766;2022-12-18T12:41:34;-3.90;99.90
21261;DHT22;10788;47.930;9.766;2022-12-18T12:44:31;-3.90;99.90
21261;DHT22;10788;47.930;9.766;2022-12-18T12:47:01;-3.90;99.90
21261;DHT22;10788;47.930;9.766;2022-12-18T12:49:32;-3.90;99.90
21261;DHT22;10788;47.930;9.766;2022-12-18T12:52:15;-3.90;99.90
21261;DHT22;10788;47.930;9.766;2022-12-18T12:54:42;-3.90;99.90
21261;DHT22;10788;47.930;9.766;2022-12-18T12:57:13;-3.90;99.90
21261;DHT22;10788;47.930;9.766;2022-12-18T12:59:59;-4.00;99.90
21261;DHT22;10788;47.930;9.766;2022-12-18T13:05:33;-3.90;99.90
21261;DHT22;10788;47.930;9.766;2022-12-18T13:08:09;-4.00;99.90
21261;DHT22;10788;47.930;9.766;2022-12-18T13:10:40;-4.00;99.90
21261;DHT22;10788;47.930;9.766;2022-12-18T13:13:11;-4.10;99.90
21261;DHT22;10788;47.930;9.766;2022-12-18T13:16:06;-4.10;99.90
21261;DHT22;10788;47.930;9.766;2022-12-18T13:18:33;-4.20;99.90
21261;DHT22;10788;47.930;9.766;2022-12-18T13:31:06;-4.00;99.90
21261;DHT22;10788;47.930;9.766;2022-12-18T13:38:46;-3.90;99.90
21261;DHT22;10788;47.930;9.766;2022-12-18T13:43:45;-3.90;99.90
21261;DHT22;10788;47.930;9.766;2022-12-18T13:48:57;-3.80;99.90
21261;DHT22;10788;47.930;9.766;2022-12-18T13:51:25;-3.80;99.90
21261;DHT22;10788;47.930;9.766;2022-12-18T13:54:40;-3.80;99.90
21261;DHT22;10788;47.930;9.766;2022-12-18T13:56:45;-4.00;99.90
21261;DHT22;10788;47.930;9.766;2022-12-18T13:59:17;-4.10;99.90
21261;DHT22;10788;47.930;9.766;2022-12-18T14:01:48;-4.10;99.90
21261;DHT22;10788;47.930;9.766;2022-12-18T14:04:32;-4.10;99.90
21261;DHT22;10788;47.930;9.766;2022-12-18T14:07:04;-4.00;99.90
21261;DHT22;10788;47.930;9.766;2022-12-18T14:09:35;-4.00;99.90
21261;DHT22;10788;47.930;9.766;2022-12-18T14:12:02;-3.90;99.90
21261;DHT22;10788;47.930;9.766;2022-12-18T14:14:49;-4.00;99.90
21261;DHT22;10788;47.930;9.766;2022-12-18T14:17:16;-4.00;99.90
21261;DHT22;10788;47.930;9.766;2022-12-18T14:19:47;-4.00;99.90
21261;DHT22;10788;47.930;9.766;2022-12-18T14:22:23;-3.90;99.90
21261;DHT22;10788;47.930;9.766;2022-12-18T14:27:46;-3.90;99.90
21261;DHT22;10788;47.930;9.766;2022-12-18T14:33:15;-3.80;99.90
21261;DHT22;10788;47.930;9.766;2022-12-18T14:35:59;-3.80;99.90
21261;DHT22;10788;47.930;9.766;2022-12-18T14:38:36;-3.70;99.90
21261;DHT22;10788;47.930;9.766;2022-12-18T14:41:13;-3.70;99.90
21261;DHT22;10788;47.930;9.766;2022-12-18T14:43:42;-3.80;99.90
21261;DHT22;10788;47.930;9.766;2022-12-18T14:46:32;-3.80;99.90
21261;DHT22;10788;47.930;9.766;2022-12-18T14:51:50;-3.80;99.90
21261;DHT22;10788;47.930;9.766;2022-12-18T14:54:18;-3.80;99.90
21261;DHT22;10788;47.930;9.766;2022-12-18T14:56:47;-3.80;99.90
21261;DHT22;10788;47.930;9.766;2022-12-18T14:59:15;-3.80;99.90
21261;DHT22;10788;47.930;9.766;2022-12-18T15:07:16;-4.00;99.90
21261;DHT22;10788;47.930;9.766;2022-12-18T15:09:47;-4.00;99.90
21261;DHT22;10788;47.930;9.766;2022-12-18T15:12:33;-4.00;99.90
21261;DHT22;10788;47.930;9.766;2022-12-18T15:14:59;-4.10;99.90
21261;DHT22;10788;47.930;9.766;2022-12-18T15:17:24;-4.10;99.90
21261;DHT22;10788;47.930;9.766;2022-12-18T15:19:53;-4.10;99.90
21261;DHT22;10788;47.930;9.766;2022-12-18T15:22:26;-4.10;99.90
21261;DHT22;10788;47.930;9.766;2022-12-18T15:24:54;-4.20;99.90
21261;DHT22;10788;47.930;9.766;2022-12-18T15:27:25;-4.10;99.90
21261;DHT22;10788;47.930;9.766;2022-12-18T15:32:39;-4.20;99.90
21261;DHT22;10788;47.930;9.766;2022-12-18T15:35:23;-4.20;99.90
21261;DHT22;10788;47.930;9.766;2022-12-18T15:37:51;-4.20;99.90
21261;DHT22;10788;47.930;9.766;2022-12-18T15:40:21;-4.20;99.90
21261;DHT22;10788;47.930;9.766;2022-12-18T15:42:48;-4.30;99.90
21261;DHT22;10788;47.930;9.766;2022-12-18T15:45:33;-4.30;99.90
21261;DHT22;10788;47.930;9.766;2022-12-18T15:47:59;-4.30;99.90
21261;DHT22;10788;47.930;9.766;2022-12-18T15:50:25;-4.20;99.90
21261;DHT22;10788;47.930;9.766;2022-12-18T15:52:52;-4.20;99.90
21261;DHT22;10788;47.930;9.766;2022-12-18T15:55:21;-4.10;99.90
21261;DHT22;10788;47.930;9.766;2022-12-18T15:58:06;-4.10;99.90
21261;DHT22;10788;47.930;9.766;2022-12-18T16:00:34;-4.10;99.90
21261;DHT22;10788;47.930;9.766;2022-12-18T16:03:00;-4.10;99.90
21261;DHT22;10788;47.930;9.766;2022-12-18T16:05:27;-4.20;99.90
21261;DHT22;10788;47.930;9.766;2022-12-18T16:07:53;-4.20;99.90
21261;DHT22;10788;47.930;9.766;2022-12-18T16:10:19;-4.30;99.90
21261;DHT22;10788;47.930;9.766;2022-12-18T16:12:45;-4.30;99.90
21261;DHT22;10788;47.930;9.766;2022-12-18T16:15:13;-4.30;99.90
21261;DHT22;10788;47.930;9.766;2022-12-18T16:17:43;-4.30;99.90
21261;DHT22;10788;47.930;9.766;2022-12-18T16:20:17;-4.30;99.90
21261;DHT22;10788;47.930;9.766;2022-12-18T16:22:44;-4.30;99.90
21261;DHT22;10788;47.930;9.766;2022-12-18T16:25:27;-4.40;99.90
21261;DHT22;10788;47.930;9.766;2022-12-18T16:27:54;-4.40;99.90
21261;DHT22;10788;47.930;9.766;2022-12-18T16:30:25;-4.40;99.90
21261;DHT22;10788;47.930;9.766;2022-12-18T16:32:56;-4.40;99.90
21261;DHT22;10788;47.930;9.766;2022-12-18T16:35:23;-4.30;99.90
21261;DHT22;10788;47.930;9.766;2022-12-18T16:37:49;-4.30;99.90
21261;DHT22;10788;47.930;9.766;2022-12-18T16:40:16;-4.20;99.90
21261;DHT22;10788;47.930;9.766;2022-12-18T16:42:44;-4.20;99.90
21261;DHT22;10788;47.930;9.766;2022-12-18T16:45:12;-4.20;99.90
21261;DHT22;10788;47.930;9.766;2022-12-18T16:47:38;-4.20;99.90
21261;DHT22;10788;47.930;9.766;2022-12-18T16:50:05;-4.20;99.90
21261;DHT22;10788;47.930;9.766;2022-12-18T16:52:31;-4.10;99.90
21261;DHT22;10788;47.930;9.766;2022-12-18T16:54:56;-4.10;99.90
21261;DHT22;10788;47.930;9.766;2022-12-18T16:57:22;-4.10;99.90
21261;DHT22;10788;47.930;9.766;2022-12-18T16:59:48;-4.00;99.90
21261;DHT22;10788;47.930;9.766;2022-12-18T17:02:16;-4.00;99.90
21261;DHT22;10788;47.930;9.766;2022-12-18T17:04:43;-3.90;99.90
21261;DHT22;10788;47.930;9.766;2022-12-18T17:07:09;-4.00;99.90
21261;DHT22;10788;47.930;9.766;2022-12-18T17:09:35;-4.20;99.90
21261;DHT22;10788;47.930;9.766;2022-12-18T17:12:01;-4.30;99.90
21261;DHT22;10788;47.930;9.766;2022-12-18T17:14:26;-4.30;99.90
21261;DHT22;10788;47.930;9.766;2022-12-18T17:16:53;-4.30;99.90
21261;DHT22;10788;47.930;9.766;2022-12-18T17:19:19;-4.20;99.90
21261;DHT22;10788;47.930;9.766;2022-12-18T17:21:49;-4.20;99.90
21261;DHT22;10788;47.930;9.766;2022-12-18T17:24:15;-4.20;99.90
21261;DHT22;10788;47.930;9.766;2022-12-18T17:26:41;-4.20;99.90
21261;DHT22;10788;47.930;9.766;2022-12-18T17:29:07;-4.20;99.90
21261;DHT22;10788;47.930;9.766;2022-12-18T17:31:33;-4.10;99.90
21261;DHT22;10788;47.930;9.766;2022-12-18T17:34:01;-4.10;99.90
21261;DHT22;10788;47.930;9.766;2022-12-18T17:36:27;-4.10;99.90
21261;DHT22;10788;47.930;9.766;2022-12-18T17:38:57;-4.10;99.90
21261;DHT22;10788;47.930;9.766;2022-12-18T17:41:24;-4.00;99.90
21261;DHT22;10788;47.930;9.766;2022-12-18T17:43:54;-4.00;99.90
21261;DHT22;10788;47.930;9.766;2022-12-18T17:46:21;-4.00;99.90
21261;DHT22;10788;47.930;9.766;2022-12-18T17:48:47;-4.00;99.90
21261;DHT22;10788;47.930;9.766;2022-12-18T17:51:14;-3.90;99.90
21261;DHT22;10788;47.930;9.766;2022-12-18T17:53:40;-3.90;99.90
21261;DHT22;10788;47.930;9.766;2022-12-18T17:56:12;-3.90;99.90
21261;DHT22;10788;47.930;9.766;2022-12-18T17:58:38;-3.90;99.90
21261;DHT22;10788;47.930;9.766;2022-12-18T18:01:04;-3.90;99.90
21261;DHT22;10788;47.930;9.766;2022-12-18T18:03:32;-3.90;99.90
21261;DHT22;10788;47.930;9.766;2022-12-18T18:05:59;-3.90;99.90
21261;DHT22;10788;47.930;9.766;2022-12-18T18:08:25;-4.00;99.90
21261;DHT22;10788;47.930;9.766;2022-12-18T18:10:51;-4.20;99.90
21261;DHT22;10788;47.930;9.766;2022-12-18T18:16:04;-4.30;99.90